Time,TemperatureF,DewpointF,PressureIn,WindDirection,WindDirectionDegrees,WindSpeedMPH,WindSpeedGustMPH,Humidity,HourlyPrecipIn,Conditions,Clouds,dailyrainin,SoftwareType,DateUTC
2013-03-21 00:00:00,28.4,21.8,29.81,West,260,0.0,0.0,76,0.00,BKN,,0.00,WeatherDisplay:10.37,2013-03-21 04:00:00,
2013-03-21 00:02:00,28.4,21.8,29.81,West,260,0.0,0.0,76,0.00,OVC,,0.00,WeatherDisplay:10.37,2013-03-21 04:02:00,
2013-03-21 00:07:00,28.5,21.9,29.81,West,260,0.0,0.0,76,0.00,OVC,,0.00,WeatherDisplay:10.37,2013-03-21 04:07:00,
2013-03-21 00:12:00,28.7,22.4,29.81,West,260,0.0,0.0,77,0.00,OVC,,0.00,WeatherDisplay:10.37,2013-03-21 04:12:00,
2013-03-21 00:16:00,28.7,22.4,29.81,West,260,0.0,0.0,77,0.00,OVC,,0.00,WeatherDisplay:10.37,2013-03-21 04:16:00,
2013-03-21 00:21:00,28.7,22.4,29.81,West,260,0.0,0.0,77,0.00,OVC,,0.00,WeatherDisplay:10.37,2013-03-21 04:21:00,
2013-03-21 00:26:00,28.8,22.5,29.81,West,260,0.0,0.0,77,0.00,OVC,,0.00,WeatherDisplay:10.37,2013-03-21 04:26:00,
2013-03-21 00:32:00,29.0,23.0,29.81,West,260,0.0,0.0,78,0.00,OVC,,0.00,WeatherDisplay:10.37,2013-03-21 04:32:00,
2013-03-21 00:37:00,29.5,23.5,29.81,WSW,247,3.5,3.5,78,0.00,OVC,,0.00,WeatherDisplay:10.37,2013-03-21 04:37:00,
2013-03-21 00:42:00,29.5,23.2,29.81,WSW,247,0.0,0.0,77,0.00,OVC,,0.00,WeatherDisplay:10.37,2013-03-21 04:42:00,
2013-03-21 00:43:00,29.6,23.3,29.81,WSW,247,0.0,0.0,77,0.00,OVC,,0.00,WeatherDisplay:10.37,2013-03-21 04:43:00,
2013-03-21 00:48:00,29.5,23.2,29.81,WSW,247,0.0,0.0,77,0.00,OVC,,0.00,WeatherDisplay:10.37,2013-03-21 04:48:00,
2013-03-21 00:53:00,29.6,23.3,29.81,WSW,247,0.0,0.0,77,0.00,OVC,,0.00,WeatherDisplay:10.37,2013-03-21 04:53:00,
2013-03-21 00:58:00,29.9,23.6,29.82,WSW,247,0.0,0.0,77,0.00,OVC,,0.00,WeatherDisplay:10.37,2013-03-21 04:58:00,
2013-03-21 01:03:00,29.9,23.6,29.81,WSW,247,0.0,0.0,77,0.00,OVC,,0.00,WeatherDisplay:10.37,2013-03-21 05:03:00,
2013-03-21 01:08:00,30.2,23.6,29.81,WSW,247,0.0,0.0,76,0.00,OVC,,0.00,WeatherDisplay:10.37,2013-03-21 05:08:00,
2013-03-21 01:13:00,30.1,23.8,29.82,WSW,247,0.0,0.0,77,0.00,OVC,,0.00,WeatherDisplay:10.37,2013-03-21 05:13:00,
2013-03-21 01:18:00,30.1,23.8,29.81,WSW,247,0.0,0.0,77,0.00,OVC,,0.00,WeatherDisplay:10.37,2013-03-21 05:18:00,
2013-03-21 01:24:00,30.1,23.8,29.81,WSW,247,0.0,0.0,77,0.00,OVC,,0.00,WeatherDisplay:10.37,2013-03-21 05:24:00,
2013-03-21 01:29:00,30.1,23.8,29.81,WSW,247,0.0,0.0,77,0.00,OVC,,0.00,WeatherDisplay:10.37,2013-03-21 05:29:00,
2013-03-21 01:34:00,30.0,23.7,29.82,WSW,247,0.0,0.0,77,0.00,OVC,,0.00,WeatherDisplay:10.37,2013-03-21 05:34:00,
2013-03-21 01:39:00,30.1,23.5,29.81,WSW,247,0.0,0.0,76,0.00,OVC,,0.00,WeatherDisplay:10.37,2013-03-21 05:39:00,
2013-03-21 01:44:00,30.1,23.8,29.81,WSW,247,0.0,0.0,77,0.00,OVC,,0.00,WeatherDisplay:10.37,2013-03-21 05:44:00,
2013-03-21 01:50:00,30.3,23.7,29.81,WSW,247,0.0,0.0,76,0.00,OVC,,0.00,WeatherDisplay:10.37,2013-03-21 05:50:00,
2013-03-21 01:55:00,30.4,24.1,29.81,WSW,247,0.0,0.0,77,0.00,OVC,,0.00,WeatherDisplay:10.37,2013-03-21 05:55:00,
2013-03-21 02:00:00,30.7,24.4,29.81,WSW,247,0.0,0.0,77,0.00,OVC,,0.00,WeatherDisplay:10.37,2013-03-21 06:00:00,
2013-03-21 02:05:00,30.6,24.3,29.81,WSW,247,0.0,0.0,77,0.00,OVC,,0.00,WeatherDisplay:10.37,2013-03-21 06:05:00,
2013-03-21 02:10:00,30.8,24.2,29.81,WSW,247,0.0,0.0,76,0.00,OVC,,0.00,WeatherDisplay:10.37,2013-03-21 06:10:00,
2013-03-21 02:15:00,30.8,24.2,29.81,WSW,247,0.0,0.0,76,0.00,OVC,,0.00,WeatherDisplay:10.37,2013-03-21 06:15:00,
2013-03-21 02:20:00,30.8,24.5,29.81,WNW,302,0.0,0.0,77,0.00,OVC,,0.00,WeatherDisplay:10.37,2013-03-21 06:20:00,
2013-03-21 02:25:00,30.8,24.5,29.81,WNW,302,0.0,0.0,77,0.00,OVC,,0.00,WeatherDisplay:10.37,2013-03-21 06:25:00,
2013-03-21 02:30:00,30.7,24.4,29.81,WNW,302,0.0,0.0,77,0.00,OVC,,0.00,WeatherDisplay:10.37,2013-03-21 06:30:00,
2013-03-21 02:35:00,30.7,24.1,29.81,WNW,302,0.0,0.0,76,0.00,-SN,,0.00,WeatherDisplay:10.37,2013-03-21 06:35:00,
2013-03-21 02:40:00,30.6,24.3,29.80,WNW,302,0.0,0.0,77,0.00,-SN,,0.00,WeatherDisplay:10.37,2013-03-21 06:40:00,
2013-03-21 02:45:00,30.5,24.2,29.80,WNW,302,0.0,0.0,77,0.00,-SN,,0.00,WeatherDisplay:10.37,2013-03-21 06:45:00,
2013-03-21 02:50:00,30.4,24.1,29.80,WNW,302,0.0,0.0,77,0.00,-SN,,0.00,WeatherDisplay:10.37,2013-03-21 06:50:00,
2013-03-21 02:55:00,30.1,23.8,29.80,NNW,329,3.5,3.5,77,0.00,-SN,,0.00,WeatherDisplay:10.37,2013-03-21 06:55:00,
2013-03-21 03:00:00,29.9,23.9,29.80,NNW,330,0.0,0.0,78,0.00,-SN,,0.00,WeatherDisplay:10.37,2013-03-21 07:00:00,
2013-03-21 03:05:00,29.8,23.8,29.80,NNW,330,0.0,0.0,78,0.00,-SN,,0.00,WeatherDisplay:10.37,2013-03-21 07:05:00,
2013-03-21 03:10:00,29.5,24.1,29.80,NNW,330,0.0,0.0,80,0.00,-SN,,0.00,WeatherDisplay:10.37,2013-03-21 07:10:00,
2013-03-21 03:15:00,29.5,24.1,29.80,NNW,330,0.0,0.0,80,0.00,-SN,,0.00,WeatherDisplay:10.37,2013-03-21 07:15:00,
2013-03-21 03:20:00,29.6,23.9,29.79,NNW,330,0.0,0.0,79,0.00,-SN,,0.00,WeatherDisplay:10.37,2013-03-21 07:20:00,
2013-03-21 03:25:00,29.8,24.1,29.79,NNW,330,0.0,0.0,79,0.00,-SN,,0.00,WeatherDisplay:10.37,2013-03-21 07:25:00,
2013-03-21 03:30:00,29.9,24.2,29.79,NNW,330,0.0,0.0,79,0.00,-SN,,0.00,WeatherDisplay:10.37,2013-03-21 07:30:00,
2013-03-21 03:35:00,30.0,24.6,29.79,NNW,330,0.0,0.0,80,0.00,-SN,,0.00,WeatherDisplay:10.37,2013-03-21 07:35:00,
2013-03-21 03:40:00,29.8,24.1,29.79,North,360,1.2,2.7,79,0.00,-SN,,0.00,WeatherDisplay:10.37,2013-03-21 07:40:00,
2013-03-21 03:45:00,30.1,24.4,29.79,North,0,0.0,0.0,79,0.00,-SN,,0.00,WeatherDisplay:10.37,2013-03-21 07:45:00,
2013-03-21 03:50:00,30.1,24.4,29.79,North,0,0.0,0.0,79,0.00,-SN,,0.00,WeatherDisplay:10.37,2013-03-21 07:50:00,
2013-03-21 03:55:00,30.0,24.3,29.79,North,350,1.2,0.0,79,0.00,-SN,,0.00,WeatherDisplay:10.37,2013-03-21 07:55:00,
2013-03-21 04:00:00,29.9,24.2,29.78,North,352,5.8,5.8,79,0.00,-SN,,0.00,WeatherDisplay:10.37,2013-03-21 08:00:00,
2013-03-21 04:05:00,30.0,24.3,29.78,NNW,328,2.3,2.3,79,0.00,-SN,,0.00,WeatherDisplay:10.37,2013-03-21 08:05:00,
2013-03-21 04:10:00,29.8,24.1,29.78,NNW,328,0.0,0.0,79,0.00,-SN,,0.00,WeatherDisplay:10.37,2013-03-21 08:10:00,
2013-03-21 04:15:00,29.7,24.0,29.78,North,0,0.0,0.3,79,0.00,-SN,,0.00,WeatherDisplay:10.37,2013-03-21 08:15:00,
2013-03-21 04:20:00,29.6,23.9,29.78,North,357,4.6,4.6,79,0.00,OVC,,0.00,WeatherDisplay:10.37,2013-03-21 08:20:00,
2013-03-21 04:25:00,29.6,23.9,29.78,North,3,3.5,3.5,79,0.00,OVC,,0.00,WeatherDisplay:10.37,2013-03-21 08:25:00,
2013-03-21 04:30:00,29.5,23.8,29.78,NW,323,0.0,0.0,79,0.00,OVC,,0.00,WeatherDisplay:10.37,2013-03-21 08:30:00,
2013-03-21 04:35:00,29.4,23.7,29.78,WNW,291,1.2,1.2,79,0.00,OVC,,0.00,WeatherDisplay:10.37,2013-03-21 08:35:00,
2013-03-21 04:41:00,29.3,23.6,29.77,North,360,0.0,0.0,79,0.00,OVC,,0.00,WeatherDisplay:10.37,2013-03-21 08:41:00,
2013-03-21 04:46:00,29.1,23.4,29.77,North,360,0.0,0.0,79,0.00,OVC,,0.00,WeatherDisplay:10.37,2013-03-21 08:46:00,
2013-03-21 04:52:00,29.0,23.3,29.77,NNW,336,0.0,0.0,79,0.00,OVC,,0.00,WeatherDisplay:10.37,2013-03-21 08:52:00,
2013-03-21 04:57:00,29.0,23.3,29.77,NNW,335,1.2,1.2,79,0.00,OVC,,0.00,WeatherDisplay:10.37,2013-03-21 08:57:00,
2013-03-21 05:02:00,28.9,23.5,29.77,NNE,17,2.3,2.3,80,0.00,OVC,,0.00,WeatherDisplay:10.37,2013-03-21 09:02:00,
2013-03-21 05:08:00,28.7,23.3,29.77,WNW,299,0.0,0.0,80,0.00,OVC,,0.00,WeatherDisplay:10.37,2013-03-21 09:08:00,
2013-03-21 05:13:00,28.7,23.3,29.77,WNW,299,0.0,0.0,80,0.00,OVC,,0.00,WeatherDisplay:10.37,2013-03-21 09:13:00,
2013-03-21 05:19:00,28.6,23.3,29.77,WNW,299,0.0,0.0,80,0.00,OVC,,0.00,WeatherDisplay:10.37,2013-03-21 09:19:00,
2013-03-21 05:24:00,28.4,23.1,29.77,WNW,299,0.0,0.0,80,0.00,OVC,,0.00,WeatherDisplay:10.37,2013-03-21 09:24:00,
2013-03-21 05:30:00,28.3,22.7,29.77,WNW,299,0.0,0.0,79,0.00,OVC,,0.00,WeatherDisplay:10.37,2013-03-21 09:30:00,
2013-03-21 05:35:00,28.4,22.8,29.77,WNW,299,0.0,0.0,79,0.00,OVC,,0.00,WeatherDisplay:10.37,2013-03-21 09:35:00,
2013-03-21 05:40:00,28.3,22.7,29.77,WNW,299,0.0,0.0,79,0.00,OVC,,0.00,WeatherDisplay:10.37,2013-03-21 09:40:00,
2013-03-21 05:45:00,28.3,22.7,29.77,WNW,299,0.0,0.0,79,0.00,OVC,,0.00,WeatherDisplay:10.37,2013-03-21 09:45:00,
2013-03-21 05:50:00,28.4,22.8,29.77,NNW,339,3.5,3.5,79,0.00,OVC,,0.00,WeatherDisplay:10.37,2013-03-21 09:50:00,
2013-03-21 05:55:00,28.2,22.6,29.77,West,265,2.3,2.3,79,0.00,OVC,,0.00,WeatherDisplay:10.37,2013-03-21 09:55:00,
2013-03-21 06:00:00,28.2,22.3,29.77,West,264,0.0,0.0,78,0.00,OVC,,0.00,WeatherDisplay:10.37,2013-03-21 10:00:00,
2013-03-21 06:05:00,28.2,22.6,29.77,West,264,0.0,0.0,79,0.00,OVC,,0.00,WeatherDisplay:10.37,2013-03-21 10:05:00,
2013-03-21 06:10:00,28.3,22.7,29.77,West,264,0.0,0.0,79,0.00,OVC,,0.00,WeatherDisplay:10.37,2013-03-21 10:10:00,
2013-03-21 06:15:00,28.4,22.5,29.77,West,264,0.0,0.0,78,0.00,OVC,,0.00,WeatherDisplay:10.37,2013-03-21 10:15:00,
2013-03-21 06:20:00,28.4,22.5,29.77,NW,319,0.0,0.0,78,0.00,OVC,,0.00,WeatherDisplay:10.37,2013-03-21 10:20:00,
2013-03-21 06:25:00,28.2,22.3,29.77,NNW,329,0.0,3.0,78,0.00,OVC,,0.00,WeatherDisplay:10.37,2013-03-21 10:25:00,
2013-03-21 06:30:00,28.2,22.3,29.77,NW,312,4.6,4.6,78,0.00,OVC,,0.00,WeatherDisplay:10.37,2013-03-21 10:30:00,
2013-03-21 06:35:00,28.3,22.1,29.77,NW,309,0.0,0.0,77,0.00,OVC,,0.00,WeatherDisplay:10.37,2013-03-21 10:35:00,
2013-03-21 06:40:00,28.5,21.9,29.77,NW,313,0.0,0.0,76,0.00,OVC,,0.00,WeatherDisplay:10.37,2013-03-21 10:40:00,
2013-03-21 06:46:00,28.5,21.9,29.77,North,349,0.0,0.0,76,0.00,OVC,,0.00,WeatherDisplay:10.37,2013-03-21 10:46:00,
2013-03-21 06:52:00,28.5,21.9,29.77,North,1,0.0,0.8,76,0.00,OVC,,0.00,WeatherDisplay:10.37,2013-03-21 10:52:00,
2013-03-21 06:57:00,28.4,21.8,29.77,North,353,0.0,1.4,76,0.00,OVC,,0.00,WeatherDisplay:10.37,2013-03-21 10:57:00,
2013-03-21 07:02:00,28.4,22.1,29.77,North,350,2.3,2.3,77,0.00,OVC,,0.00,WeatherDisplay:10.37,2013-03-21 11:02:00,
2013-03-21 07:08:00,28.4,22.1,29.77,North,0,0.0,0.0,77,0.00,OVC,,0.00,WeatherDisplay:10.37,2013-03-21 11:08:00,
2013-03-21 07:13:00,28.4,22.1,29.77,North,0,0.0,0.0,77,0.00,OVC,,0.00,WeatherDisplay:10.37,2013-03-21 11:13:00,
2013-03-21 07:18:00,28.1,22.2,29.77,WNW,284,1.1,1.1,78,0.00,OVC,,0.00,WeatherDisplay:10.37,2013-03-21 11:18:00,
2013-03-21 07:23:00,28.3,22.4,29.77,WNW,284,0.0,0.0,78,0.00,OVC,,0.00,WeatherDisplay:10.37,2013-03-21 11:23:00,
2013-03-21 07:28:00,28.2,22.0,29.77,WNW,284,0.0,0.0,77,0.00,OVC,,0.00,WeatherDisplay:10.37,2013-03-21 11:28:00,
2013-03-21 07:33:00,28.3,22.4,29.77,WNW,284,0.0,0.0,78,0.00,OVC,,0.00,WeatherDisplay:10.37,2013-03-21 11:33:00,
2013-03-21 07:38:00,28.4,22.1,29.77,WNW,301,3.5,3.5,77,0.00,OVC,,0.00,WeatherDisplay:10.37,2013-03-21 11:38:00,
2013-03-21 07:43:00,28.4,22.1,29.77,WNW,302,0.0,0.0,77,0.00,OVC,,0.00,WeatherDisplay:10.37,2013-03-21 11:43:00,
2013-03-21 07:49:00,28.5,21.9,29.77,West,275,3.5,3.5,76,0.00,OVC,,0.00,WeatherDisplay:10.37,2013-03-21 11:49:00,
2013-03-21 07:54:00,28.7,21.5,29.77,West,275,0.0,0.0,74,0.00,OVC,,0.00,WeatherDisplay:10.37,2013-03-21 11:54:00,
2013-03-21 07:59:00,28.6,21.4,29.77,WNW,299,0.0,0.0,74,0.00,OVC,,0.00,WeatherDisplay:10.37,2013-03-21 11:59:00,
2013-03-21 08:04:00,28.6,21.1,29.77,WNW,299,0.0,0.0,73,0.00,OVC,,0.00,WeatherDisplay:10.37,2013-03-21 12:04:00,
2013-03-21 08:09:00,28.7,20.8,29.77,WNW,299,0.0,0.0,72,0.00,OVC,,0.00,WeatherDisplay:10.37,2013-03-21 12:09:00,
2013-03-21 08:14:00,28.7,20.8,29.77,West,271,0.0,1.3,72,0.00,OVC,,0.00,WeatherDisplay:10.37,2013-03-21 12:14:00,
2013-03-21 08:19:00,28.8,20.9,29.77,West,271,0.0,0.0,72,0.00,OVC,,0.00,WeatherDisplay:10.37,2013-03-21 12:19:00,
2013-03-21 08:24:00,28.9,20.4,29.77,NNW,336,2.3,2.3,70,0.00,OVC,,0.00,WeatherDisplay:10.37,2013-03-21 12:24:00,
2013-03-21 08:29:00,28.8,20.3,29.76,NNW,342,4.6,4.6,70,0.00,OVC,,0.00,WeatherDisplay:10.37,2013-03-21 12:29:00,
2013-03-21 08:34:00,29.0,20.8,29.76,NW,309,4.6,4.6,71,0.00,OVC,,0.00,WeatherDisplay:10.37,2013-03-21 12:34:00,
2013-03-21 08:39:00,29.1,20.6,29.76,WNW,285,2.6,2.6,70,0.00,OVC,,0.00,WeatherDisplay:10.37,2013-03-21 12:39:00,
2013-03-21 08:44:00,29.2,20.7,29.75,NNW,333,5.8,5.8,70,0.00,OVC,,0.00,WeatherDisplay:10.37,2013-03-21 12:44:00,
2013-03-21 08:49:00,29.3,21.1,29.75,NW,319,0.0,0.0,71,0.00,OVC,,0.00,WeatherDisplay:10.37,2013-03-21 12:49:00,
2013-03-21 08:54:00,29.6,21.4,29.75,NW,306,5.8,5.8,71,0.00,OVC,,0.00,WeatherDisplay:10.37,2013-03-21 12:54:00,
2013-03-21 08:59:00,29.7,21.1,29.75,NW,304,5.8,5.8,70,0.00,OVC,,0.00,WeatherDisplay:10.37,2013-03-21 12:59:00,
2013-03-21 09:04:00,29.7,21.5,29.75,NW,305,3.7,3.7,71,0.00,OVC,,0.00,WeatherDisplay:10.37,2013-03-21 13:04:00,
2013-03-21 09:09:00,29.8,21.2,29.75,NNW,346,0.0,0.0,70,0.00,OVC,,0.00,WeatherDisplay:10.37,2013-03-21 13:09:00,
2013-03-21 09:15:00,29.7,21.5,29.74,NNW,346,0.0,0.0,71,0.00,OVC,,0.00,WeatherDisplay:10.37,2013-03-21 13:15:00,
2013-03-21 09:20:00,29.8,21.6,29.74,NE,55,2.3,2.3,71,0.00,OVC,,0.00,WeatherDisplay:10.37,2013-03-21 13:20:00,
2013-03-21 09:25:00,29.9,22.0,29.74,NE,38,2.0,2.0,72,0.00,OVC,,0.00,WeatherDisplay:10.37,2013-03-21 13:25:00,
2013-03-21 09:30:00,29.9,22.0,29.74,NNE,25,0.0,0.0,72,0.00,OVC,,0.00,WeatherDisplay:10.37,2013-03-21 13:30:00,
2013-03-21 09:35:00,30.4,22.8,29.73,NNE,25,0.0,0.0,73,0.00,OVC,,0.00,WeatherDisplay:10.37,2013-03-21 13:35:00,
2013-03-21 09:40:00,30.6,23.0,29.73,ENE,68,3.8,3.8,73,0.00,OVC,,0.00,WeatherDisplay:10.37,2013-03-21 13:40:00,
2013-03-21 09:45:00,30.9,23.3,29.73,NE,35,3.5,0.0,73,0.00,OVC,,0.00,WeatherDisplay:10.37,2013-03-21 13:45:00,
2013-03-21 09:50:00,31.0,23.4,29.72,NE,44,2.3,0.0,73,0.00,OVC,,0.00,WeatherDisplay:10.37,2013-03-21 13:50:00,
2013-03-21 09:55:00,31.2,23.9,29.72,NE,41,6.2,6.2,74,0.00,OVC,,0.00,WeatherDisplay:10.37,2013-03-21 13:55:00,
2013-03-21 10:00:00,31.5,23.5,29.72,NE,45,5.8,5.8,72,0.00,OVC,,0.00,WeatherDisplay:10.37,2013-03-21 14:00:00,
2013-03-21 10:05:00,31.5,23.2,29.72,NE,47,2.3,0.0,71,0.00,OVC,,0.00,WeatherDisplay:10.37,2013-03-21 14:05:00,
2013-03-21 10:11:00,31.4,22.1,29.72,East,79,3.7,3.7,68,0.00,OVC,,0.00,WeatherDisplay:10.37,2013-03-21 14:11:00,
2013-03-21 10:16:00,31.5,21.5,29.72,NNW,344,0.0,0.0,66,0.00,OVC,,0.00,WeatherDisplay:10.37,2013-03-21 14:16:00,
2013-03-21 10:21:00,31.6,21.9,29.72,NNE,31,4.6,4.6,67,0.00,OVC,,0.00,WeatherDisplay:10.37,2013-03-21 14:21:00,
2013-03-21 10:26:00,31.6,20.8,29.71,East,96,3.5,3.5,64,0.00,OVC,,0.00,WeatherDisplay:10.37,2013-03-21 14:26:00,
2013-03-21 10:31:00,31.6,21.2,29.71,NNE,17,0.0,0.0,65,0.00,OVC,,0.00,WeatherDisplay:10.37,2013-03-21 14:31:00,
2013-03-21 10:37:00,32.0,20.1,29.71,ENE,76,3.5,3.5,61,0.00,OVC,,0.00,WeatherDisplay:10.37,2013-03-21 14:37:00,
2013-03-21 10:43:00,31.9,19.6,29.72,ENE,65,4.6,4.6,60,0.00,OVC,,0.00,WeatherDisplay:10.37,2013-03-21 14:43:00,
2013-03-21 10:48:00,31.6,19.3,29.72,NNE,25,5.8,5.8,60,0.00,OVC,,0.00,WeatherDisplay:10.37,2013-03-21 14:48:00,
2013-03-21 10:53:00,31.4,18.4,29.72,North,11,4.6,4.6,58,0.00,OVC,,0.00,WeatherDisplay:10.37,2013-03-21 14:53:00,
2013-03-21 10:58:00,31.5,18.8,29.71,NE,34,0.0,0.0,59,0.00,OVC,,0.00,WeatherDisplay:10.37,2013-03-21 14:58:00,
2013-03-21 11:03:00,31.5,18.8,29.71,NE,42,0.0,0.0,59,0.00,OVC,,0.00,WeatherDisplay:10.37,2013-03-21 15:03:00,
2013-03-21 11:09:00,31.7,17.4,29.71,NNE,16,1.2,1.2,55,0.00,OVC,,0.00,WeatherDisplay:10.37,2013-03-21 15:09:00,
2013-03-21 11:14:00,32.2,17.0,29.71,NE,44,6.9,6.9,53,0.00,OVC,,0.00,WeatherDisplay:10.37,2013-03-21 15:14:00,
2013-03-21 11:19:00,31.9,16.3,29.70,NE,54,9.2,9.2,52,0.00,OVC,,0.00,WeatherDisplay:10.37,2013-03-21 15:19:00,
2013-03-21 11:24:00,32.1,16.5,29.70,NE,56,4.6,4.6,52,0.00,OVC,,0.00,WeatherDisplay:10.37,2013-03-21 15:24:00,
2013-03-21 11:29:00,32.1,16.5,29.70,NE,37,6.9,6.9,52,0.00,OVC,,0.00,WeatherDisplay:10.37,2013-03-21 15:29:00,
2013-03-21 11:34:00,33.0,16.4,29.70,ENE,73,5.8,5.8,50,0.00,OVC,,0.00,WeatherDisplay:10.37,2013-03-21 15:34:00,
2013-03-21 11:39:00,33.0,16.9,29.69,ENE,76,4.6,4.6,51,0.00,OVC,,0.00,WeatherDisplay:10.37,2013-03-21 15:39:00,
2013-03-21 11:44:00,33.1,15.6,29.69,NNE,14,6.9,6.9,48,0.00,OVC,,0.00,WeatherDisplay:10.37,2013-03-21 15:44:00,
2013-03-21 11:49:00,33.4,16.8,29.69,NE,34,1.2,0.0,50,0.00,OVC,,0.00,WeatherDisplay:10.37,2013-03-21 15:49:00,
2013-03-21 11:54:00,33.7,17.5,29.69,NNE,17,5.8,5.8,51,0.00,OVC,,0.00,WeatherDisplay:10.37,2013-03-21 15:54:00,
2013-03-21 11:59:00,33.7,15.6,29.69,NE,54,6.9,6.9,47,0.00,OVC,,0.00,WeatherDisplay:10.37,2013-03-21 15:59:00,
2013-03-21 12:04:00,33.5,15.4,29.69,ENE,62,8.1,8.1,47,0.00,OVC,,0.00,WeatherDisplay:10.37,2013-03-21 16:04:00,
2013-03-21 12:09:00,33.0,15.0,29.68,NNE,20,9.2,9.2,47,0.00,OVC,,0.00,WeatherDisplay:10.37,2013-03-21 16:09:00,
2013-03-21 12:14:00,33.1,14.6,29.68,North,11,4.6,4.6,46,0.00,OVC,,0.00,WeatherDisplay:10.37,2013-03-21 16:14:00,
2013-03-21 12:19:00,33.1,14.6,29.68,NNW,342,6.9,6.9,46,0.00,OVC,,0.00,WeatherDisplay:10.37,2013-03-21 16:19:00,
2013-03-21 12:24:00,33.3,16.7,29.68,East,79,8.1,8.1,50,0.00,OVC,,0.00,WeatherDisplay:10.37,2013-03-21 16:24:00,
2013-03-21 12:29:00,33.7,15.1,29.67,ENE,62,4.6,4.6,46,0.00,OVC,,0.00,WeatherDisplay:10.37,2013-03-21 16:29:00,
2013-03-21 12:34:00,34.0,14.4,29.67,NE,37,6.9,6.9,44,0.00,OVC,,0.00,WeatherDisplay:10.37,2013-03-21 16:34:00,
2013-03-21 12:39:00,34.0,15.4,29.67,North,0,3.5,3.5,46,0.00,OVC,,0.00,WeatherDisplay:10.37,2013-03-21 16:39:00,
2013-03-21 12:44:00,34.4,15.8,29.66,WNW,302,2.3,2.3,46,0.00,OVC,,0.00,WeatherDisplay:10.37,2013-03-21 16:44:00,
2013-03-21 12:49:00,34.8,16.1,29.66,NW,305,3.5,3.5,46,0.00,OVC,,0.00,WeatherDisplay:10.37,2013-03-21 16:49:00,
2013-03-21 12:54:00,35.0,14.2,29.66,ENE,64,6.9,6.9,42,0.00,OVC,,0.00,WeatherDisplay:10.37,2013-03-21 16:54:00,
2013-03-21 12:59:00,34.8,14.0,29.66,NNW,333,4.6,4.6,42,0.00,OVC,,0.00,WeatherDisplay:10.37,2013-03-21 16:59:00,
2013-03-21 13:04:00,34.7,14.0,29.66,NNE,14,9.2,9.2,42,0.00,OVC,,0.00,WeatherDisplay:10.37,2013-03-21 17:04:00,
2013-03-21 13:09:00,34.8,14.6,29.65,West,271,1.2,1.2,43,0.00,OVC,,0.00,WeatherDisplay:10.37,2013-03-21 17:09:00,
2013-03-21 13:14:00,34.6,13.9,29.65,NE,38,6.9,6.9,42,0.00,OVC,,0.00,WeatherDisplay:10.37,2013-03-21 17:14:00,
2013-03-21 13:19:00,34.8,13.5,29.65,NE,40,6.9,6.9,41,0.00,OVC,,0.00,WeatherDisplay:10.37,2013-03-21 17:19:00,
2013-03-21 13:24:00,34.7,15.0,29.65,NE,42,5.8,5.8,44,0.00,OVC,,0.00,WeatherDisplay:10.37,2013-03-21 17:24:00,
2013-03-21 13:29:00,35.1,15.9,29.65,North,4,0.0,0.0,45,0.00,OVC,,0.00,WeatherDisplay:10.37,2013-03-21 17:29:00,
2013-03-21 13:34:00,34.9,13.6,29.65,NNW,346,0.0,0.0,41,0.00,OVC,,0.00,WeatherDisplay:10.37,2013-03-21 17:34:00,
2013-03-21 13:39:00,35.2,14.4,29.64,NE,48,6.9,6.9,42,0.00,OVC,,0.00,WeatherDisplay:10.37,2013-03-21 17:39:00,
2013-03-21 13:44:00,35.4,15.7,29.64,East,89,4.4,4.4,44,0.00,OVC,,0.00,WeatherDisplay:10.37,2013-03-21 17:44:00,
2013-03-21 13:49:00,35.7,14.9,29.64,NNE,23,5.8,5.8,42,0.00,OVC,,0.00,WeatherDisplay:10.37,2013-03-21 17:49:00,
2013-03-21 13:54:00,35.8,16.5,29.63,NE,34,4.6,4.6,45,0.00,OVC,,0.00,WeatherDisplay:10.37,2013-03-21 17:54:00,
2013-03-21 14:00:00,36.1,15.2,29.63,NW,320,6.9,6.9,42,0.00,OVC,,0.00,WeatherDisplay:10.37,2013-03-21 18:00:00,
2013-03-21 14:05:00,36.0,15.7,29.62,WNW,298,5.8,5.8,43,0.00,OVC,,0.00,WeatherDisplay:10.37,2013-03-21 18:05:00,
2013-03-21 14:10:00,36.5,17.2,29.62,North,360,6.2,6.2,45,0.00,OVC,,0.00,WeatherDisplay:10.37,2013-03-21 18:10:00,
2013-03-21 14:15:00,36.2,15.3,29.62,North,360,11.5,11.5,42,0.00,OVC,,0.00,WeatherDisplay:10.37,2013-03-21 18:15:00,
2013-03-21 14:20:00,36.2,15.9,29.62,North,360,6.9,6.9,43,0.00,OVC,,0.00,WeatherDisplay:10.37,2013-03-21 18:20:00,
2013-03-21 14:25:00,36.4,16.6,29.62,NW,322,10.4,10.4,44,0.00,OVC,,0.00,WeatherDisplay:10.37,2013-03-21 18:25:00,
2013-03-21 14:30:00,36.0,15.1,29.62,NW,326,9.2,9.2,42,0.00,OVC,,0.00,WeatherDisplay:10.37,2013-03-21 18:30:00,
2013-03-21 14:35:00,35.8,15.0,29.62,NNW,344,10.4,10.4,42,0.00,OVC,,0.00,WeatherDisplay:10.37,2013-03-21 18:35:00,
2013-03-21 14:40:00,36.1,15.2,29.62,North,349,10.4,10.4,42,0.00,OVC,,0.00,WeatherDisplay:10.37,2013-03-21 18:40:00,
2013-03-21 14:45:00,36.1,14.1,29.62,North,1,8.1,8.1,40,0.00,OVC,,0.00,WeatherDisplay:10.37,2013-03-21 18:45:00,
2013-03-21 14:50:00,36.5,15.0,29.61,ENE,62,8.1,8.1,41,0.00,OVC,,0.00,WeatherDisplay:10.37,2013-03-21 18:50:00,
2013-03-21 14:55:00,36.2,14.2,29.61,NW,318,10.4,10.4,40,0.00,OVC,,0.00,WeatherDisplay:10.37,2013-03-21 18:55:00,
2013-03-21 15:00:00,36.4,15.5,29.61,NNW,337,5.8,5.8,42,0.00,OVC,,0.00,WeatherDisplay:10.37,2013-03-21 19:00:00,
2013-03-21 15:05:00,36.3,15.9,29.61,North,4,3.2,3.2,43,0.00,OVC,,0.00,WeatherDisplay:10.37,2013-03-21 19:05:00,
2013-03-21 15:10:00,36.0,14.6,29.61,NE,37,9.2,9.2,41,0.00,OVC,,0.00,WeatherDisplay:10.37,2013-03-21 19:10:00,
2013-03-21 15:15:00,36.1,15.2,29.60,NW,326,15.0,15.0,42,0.00,OVC,,0.00,WeatherDisplay:10.37,2013-03-21 19:15:00,
2013-03-21 15:20:00,35.9,14.5,29.61,NNW,337,9.2,9.2,41,0.00,OVC,,0.00,WeatherDisplay:10.37,2013-03-21 19:20:00,
2013-03-21 15:25:00,35.8,15.0,29.61,NW,308,8.1,8.1,42,0.00,OVC,,0.00,WeatherDisplay:10.37,2013-03-21 19:25:00,
2013-03-21 15:30:00,36.0,16.2,29.60,NW,304,8.1,8.1,44,0.00,OVC,,0.00,WeatherDisplay:10.37,2013-03-21 19:30:00,
2013-03-21 15:35:00,35.9,14.5,29.60,NW,306,9.2,9.2,41,0.00,OVC,,0.00,WeatherDisplay:10.37,2013-03-21 19:35:00,
2013-03-21 15:40:00,35.7,13.7,29.61,North,10,9.2,9.2,40,0.00,OVC,,0.00,WeatherDisplay:10.37,2013-03-21 19:40:00,
2013-03-21 15:45:00,35.7,14.3,29.60,West,264,9.2,9.2,41,0.00,OVC,,0.00,WeatherDisplay:10.37,2013-03-21 19:45:00,
2013-03-21 15:50:00,36.0,15.7,29.60,WNW,296,8.1,8.1,43,0.00,OVC,,0.00,WeatherDisplay:10.37,2013-03-21 19:50:00,
2013-03-21 15:56:00,36.5,15.6,29.60,NNW,328,11.5,11.5,42,0.00,OVC,,0.00,WeatherDisplay:10.37,2013-03-21 19:56:00,
2013-03-21 16:01:00,36.3,14.3,29.60,North,7,8.1,8.1,40,0.00,OVC,,0.00,WeatherDisplay:10.37,2013-03-21 20:01:00,
2013-03-21 16:06:00,36.1,14.1,29.59,NNE,18,5.8,5.8,40,0.00,OVC,,0.00,WeatherDisplay:10.37,2013-03-21 20:06:00,
2013-03-21 16:11:00,36.3,14.3,29.59,North,350,0.0,0.0,40,0.00,OVC,,0.00,WeatherDisplay:10.37,2013-03-21 20:11:00,
2013-03-21 16:16:00,36.5,15.6,29.59,WNW,284,3.5,3.5,42,0.00,OVC,,0.00,WeatherDisplay:10.37,2013-03-21 20:16:00,
2013-03-21 16:22:00,36.2,14.2,29.59,North,360,8.1,8.1,40,0.00,OVC,,0.00,WeatherDisplay:10.37,2013-03-21 20:22:00,
2013-03-21 16:28:00,36.4,15.5,29.59,NW,325,3.5,3.5,42,0.00,OVC,,0.00,WeatherDisplay:10.37,2013-03-21 20:28:00,
2013-03-21 16:33:00,36.4,14.4,29.59,WNW,288,8.1,8.1,40,0.00,OVC,,0.00,WeatherDisplay:10.37,2013-03-21 20:33:00,
2013-03-21 16:38:00,36.5,16.7,29.59,North,350,2.7,2.7,44,0.00,OVC,,0.00,WeatherDisplay:10.37,2013-03-21 20:38:00,
2013-03-21 16:43:00,36.6,15.7,29.59,NNW,343,5.8,5.8,42,0.00,OVC,,0.00,WeatherDisplay:10.37,2013-03-21 20:43:00,
2013-03-21 16:48:00,36.3,14.9,29.59,NW,309,6.9,6.9,41,0.00,OVC,,0.00,WeatherDisplay:10.37,2013-03-21 20:48:00,
2013-03-21 16:54:00,36.5,16.1,29.59,NW,326,3.5,3.5,43,0.00,OVC,,0.00,WeatherDisplay:10.37,2013-03-21 20:54:00,
2013-03-21 16:59:00,36.4,16.0,29.59,NW,311,8.1,8.1,43,0.00,OVC,,0.00,WeatherDisplay:10.37,2013-03-21 20:59:00,
2013-03-21 17:04:00,36.9,17.5,29.59,North,360,4.6,4.6,45,0.00,OVC,,0.00,WeatherDisplay:10.37,2013-03-21 21:04:00,
2013-03-21 17:09:00,37.1,16.1,29.59,WNW,295,5.8,5.8,42,0.00,OVC,,0.00,WeatherDisplay:10.37,2013-03-21 21:09:00,
2013-03-21 17:14:00,36.9,16.0,29.59,West,280,10.4,10.4,42,0.00,OVC,,0.00,WeatherDisplay:10.37,2013-03-21 21:14:00,
2013-03-21 17:19:00,36.4,16.6,29.59,NNW,339,6.9,6.9,44,0.00,OVC,,0.00,WeatherDisplay:10.37,2013-03-21 21:19:00,
2013-03-21 17:24:00,36.3,15.9,29.59,NW,309,5.8,5.8,43,0.00,OVC,,0.00,WeatherDisplay:10.37,2013-03-21 21:24:00,
2013-03-21 17:29:00,36.1,15.8,29.59,North,11,5.8,5.8,43,0.00,OVC,,0.00,WeatherDisplay:10.37,2013-03-21 21:29:00,
2013-03-21 17:34:00,35.9,16.6,29.59,WNW,296,6.9,6.9,45,0.00,OVC,,0.00,WeatherDisplay:10.37,2013-03-21 21:34:00,
2013-03-21 17:39:00,35.9,16.6,29.59,WNW,289,4.6,4.6,45,0.00,OVC,,0.00,WeatherDisplay:10.37,2013-03-21 21:39:00,
2013-03-21 17:44:00,35.7,15.9,29.59,North,11,4.6,4.6,44,0.00,OVC,,0.00,WeatherDisplay:10.37,2013-03-21 21:44:00,
2013-03-21 17:49:00,35.9,16.6,29.59,NW,316,5.8,5.8,45,0.00,OVC,,0.00,WeatherDisplay:10.37,2013-03-21 21:49:00,
2013-03-21 17:55:00,35.9,16.6,29.60,NNW,346,7.1,7.1,45,0.00,OVC,,0.00,WeatherDisplay:10.37,2013-03-21 21:55:00,
2013-03-21 18:00:00,35.8,16.5,29.60,WNW,287,5.8,5.8,45,0.00,OVC,,0.00,WeatherDisplay:10.37,2013-03-21 22:00:00,
2013-03-21 18:05:00,35.7,15.9,29.60,WNW,294,3.9,3.9,44,0.00,OVC,,0.00,WeatherDisplay:10.37,2013-03-21 22:05:00,
2013-03-21 18:10:00,35.6,15.8,29.60,NNW,333,0.0,3.4,44,0.00,OVC,,0.00,WeatherDisplay:10.37,2013-03-21 22:10:00,
2013-03-21 18:15:00,35.5,16.8,29.60,NNW,339,2.3,2.3,46,0.00,OVC,,0.00,WeatherDisplay:10.37,2013-03-21 22:15:00,
2013-03-21 18:20:00,35.5,16.8,29.61,NNW,330,5.8,5.8,46,0.00,OVC,,0.00,WeatherDisplay:10.37,2013-03-21 22:20:00,
2013-03-21 18:25:00,35.1,15.4,29.61,NNW,328,8.1,8.1,44,0.00,OVC,,0.00,WeatherDisplay:10.37,2013-03-21 22:25:00,
2013-03-21 18:30:00,35.0,16.3,29.61,NNW,340,2.3,2.3,46,0.00,OVC,,0.00,WeatherDisplay:10.37,2013-03-21 22:30:00,
2013-03-21 18:35:00,34.9,16.2,29.61,North,360,3.5,3.5,46,0.00,OVC,,0.00,WeatherDisplay:10.37,2013-03-21 22:35:00,
2013-03-21 18:40:00,34.8,16.1,29.61,NNW,337,2.3,2.3,46,0.00,OVC,,0.00,WeatherDisplay:10.37,2013-03-21 22:40:00,
2013-03-21 18:45:00,34.5,14.8,29.61,NNW,344,2.3,2.3,44,0.00,OVC,,0.00,WeatherDisplay:10.37,2013-03-21 22:45:00,
2013-03-21 18:50:00,34.6,15.9,29.61,NNE,17,5.8,5.8,46,0.00,OVC,,0.00,WeatherDisplay:10.37,2013-03-21 22:50:00,
2013-03-21 18:55:00,34.5,15.4,29.62,NNE,23,5.8,5.8,45,0.00,OVC,,0.00,WeatherDisplay:10.37,2013-03-21 22:55:00,
2013-03-21 19:00:00,34.4,15.3,29.62,NNE,18,1.3,1.3,45,0.00,OVC,,0.00,WeatherDisplay:10.37,2013-03-21 23:00:00,
2013-03-21 19:05:00,34.2,16.1,29.62,NNE,21,0.0,0.0,47,0.00,OVC,,0.00,WeatherDisplay:10.37,2013-03-21 23:05:00,
2013-03-21 19:10:00,34.2,16.1,29.62,North,7,0.0,0.0,47,0.00,OVC,,0.00,WeatherDisplay:10.37,2013-03-21 23:10:00,
2013-03-21 19:15:00,33.8,15.7,29.62,NNE,31,2.3,2.3,47,0.00,OVC,,0.00,WeatherDisplay:10.37,2013-03-21 23:15:00,
2013-03-21 19:20:00,33.7,15.6,29.62,North,6,4.6,4.6,47,0.00,BKN,,0.00,WeatherDisplay:10.37,2013-03-21 23:20:00,
2013-03-21 19:25:00,33.3,15.7,29.63,NE,38,2.3,2.3,48,0.00,BKN,,0.00,WeatherDisplay:10.37,2013-03-21 23:25:00,
2013-03-21 19:30:00,33.2,15.6,29.63,North,10,9.2,9.2,48,0.00,BKN,,0.00,WeatherDisplay:10.37,2013-03-21 23:30:00,
2013-03-21 19:35:00,33.3,15.7,29.63,NNE,21,2.3,0.0,48,0.00,BKN,,0.00,WeatherDisplay:10.37,2013-03-21 23:35:00,
2013-03-21 19:40:00,33.0,15.5,29.64,NNW,333,5.8,5.8,48,0.00,BKN,,0.00,WeatherDisplay:10.37,2013-03-21 23:40:00,
2013-03-21 19:45:00,32.8,15.7,29.64,NNE,23,2.3,2.3,49,0.00,BKN,,0.00,WeatherDisplay:10.37,2013-03-21 23:45:00,
2013-03-21 19:50:00,32.8,16.2,29.64,NNE,16,5.8,5.8,50,0.00,BKN,,0.00,WeatherDisplay:10.37,2013-03-21 23:50:00,
2013-03-21 19:55:00,32.4,14.9,29.64,East,83,3.5,3.5,48,0.00,BKN,,0.00,WeatherDisplay:10.37,2013-03-21 23:55:00,
2013-03-21 20:00:00,32.4,14.9,29.64,NNE,27,5.8,5.8,48,0.00,BKN,,0.00,WeatherDisplay:10.37,2013-03-22 00:00:00,
2013-03-21 20:05:00,32.3,14.8,29.64,NE,35,8.1,8.1,48,0.00,BKN,,0.00,WeatherDisplay:10.37,2013-03-22 00:05:00,
2013-03-21 20:10:00,32.3,15.3,29.65,North,10,2.3,2.3,49,0.00,BKN,,0.00,WeatherDisplay:10.37,2013-03-22 00:10:00,
2013-03-21 20:15:00,32.0,15.5,29.65,WNW,298,2.4,2.4,50,0.00,BKN,,0.00,WeatherDisplay:10.37,2013-03-22 00:15:00,
2013-03-21 20:20:00,31.9,14.9,29.65,NNE,24,3.5,3.5,49,0.00,SCT,,0.00,WeatherDisplay:10.37,2013-03-22 00:20:00,
2013-03-21 20:25:00,31.9,14.4,29.65,NW,311,4.6,4.6,48,0.00,SCT,,0.00,WeatherDisplay:10.37,2013-03-22 00:25:00,
2013-03-21 20:30:00,31.9,15.4,29.65,North,360,0.0,1.0,50,0.00,SCT,,0.00,WeatherDisplay:10.37,2013-03-22 00:30:00,
2013-03-21 20:35:00,31.9,14.4,29.66,North,0,4.6,4.6,48,0.00,SCT,,0.00,WeatherDisplay:10.37,2013-03-22 00:35:00,
2013-03-21 20:40:00,31.8,14.8,29.66,North,0,0.0,0.0,49,0.00,SCT,,0.00,WeatherDisplay:10.37,2013-03-22 00:40:00,
2013-03-21 20:45:00,31.6,14.6,29.66,North,6,2.3,0.0,49,0.00,SCT,,0.00,WeatherDisplay:10.37,2013-03-22 00:45:00,
2013-03-21 20:50:00,31.5,14.5,29.66,NNE,17,8.1,8.1,49,0.00,SCT,,0.00,WeatherDisplay:10.37,2013-03-22 00:50:00,
2013-03-21 20:55:00,31.6,15.6,29.66,NNE,17,0.0,0.0,51,0.00,SCT,,0.00,WeatherDisplay:10.37,2013-03-22 00:55:00,
2013-03-21 21:00:00,31.5,14.5,29.66,NE,41,5.8,5.8,49,0.00,SCT,,0.00,WeatherDisplay:10.37,2013-03-22 01:00:00,
2013-03-21 21:05:00,31.5,15.0,29.66,NNE,14,0.0,0.0,50,0.00,OVC,,0.00,WeatherDisplay:10.37,2013-03-22 01:05:00,
2013-03-21 21:10:00,31.4,15.4,29.67,NE,44,0.0,0.0,51,0.00,OVC,,0.00,WeatherDisplay:10.37,2013-03-22 01:10:00,
2013-03-21 21:15:00,31.4,14.9,29.67,NE,37,3.5,3.5,50,0.00,OVC,,0.00,WeatherDisplay:10.37,2013-03-22 01:15:00,
2013-03-21 21:20:00,31.2,15.2,29.67,NNW,340,5.8,6.1,51,0.00,OVC,,0.00,WeatherDisplay:10.37,2013-03-22 01:20:00,
2013-03-21 21:25:00,31.3,14.8,29.67,East,79,6.9,6.9,50,0.00,OVC,,0.00,WeatherDisplay:10.37,2013-03-22 01:25:00,
2013-03-21 21:30:00,31.2,14.7,29.67,NE,54,5.8,5.8,50,0.00,OVC,,0.00,WeatherDisplay:10.37,2013-03-22 01:30:00,
2013-03-21 21:35:00,31.2,14.7,29.67,NNE,20,9.2,9.2,50,0.00,OVC,,0.00,WeatherDisplay:10.37,2013-03-22 01:35:00,
2013-03-21 21:40:00,31.1,15.1,29.67,NE,47,0.0,0.0,51,0.00,OVC,,0.00,WeatherDisplay:10.37,2013-03-22 01:40:00,
2013-03-21 21:45:00,31.1,14.2,29.67,ENE,78,4.6,4.6,49,0.00,OVC,,0.00,WeatherDisplay:10.37,2013-03-22 01:45:00,
2013-03-21 21:50:00,31.0,14.5,29.67,North,6,0.0,0.0,50,0.00,OVC,,0.00,WeatherDisplay:10.37,2013-03-22 01:50:00,
2013-03-21 21:55:00,31.0,14.5,29.67,North,6,0.0,0.0,50,0.00,OVC,,0.00,WeatherDisplay:10.37,2013-03-22 01:55:00,
2013-03-21 22:00:00,30.9,15.4,29.67,North,6,0.0,0.0,52,0.00,OVC,,0.00,WeatherDisplay:10.37,2013-03-22 02:00:00,
2013-03-21 22:05:00,30.8,15.3,29.67,ENE,72,0.0,0.0,52,0.00,OVC,,0.00,WeatherDisplay:10.37,2013-03-22 02:05:00,
2013-03-21 22:10:00,30.7,15.2,29.67,North,4,0.9,2.0,52,0.00,OVC,,0.00,WeatherDisplay:10.37,2013-03-22 02:10:00,
2013-03-21 22:15:00,30.7,14.7,29.67,North,11,0.0,0.0,51,0.00,OVC,,0.00,WeatherDisplay:10.37,2013-03-22 02:15:00,
2013-03-21 22:20:00,30.6,15.1,29.67,NW,326,4.6,4.6,52,0.00,OVC,,0.00,WeatherDisplay:10.37,2013-03-22 02:20:00,
2013-03-21 22:25:00,30.5,15.0,29.67,NNW,332,3.5,3.5,52,0.00,OVC,,0.00,WeatherDisplay:10.37,2013-03-22 02:25:00,
2013-03-21 22:30:00,30.5,14.5,29.67,NNW,346,6.9,6.9,51,0.00,OVC,,0.00,WeatherDisplay:10.37,2013-03-22 02:30:00,
2013-03-21 22:35:00,30.4,15.3,29.68,East,96,2.3,2.3,53,0.00,OVC,,0.00,WeatherDisplay:10.37,2013-03-22 02:35:00,
2013-03-21 22:40:00,30.4,15.3,29.68,West,260,0.0,0.0,53,0.00,OVC,,0.00,WeatherDisplay:10.37,2013-03-22 02:40:00,
2013-03-21 22:45:00,30.3,16.1,29.68,WSW,256,2.3,2.3,55,0.00,OVC,,0.00,WeatherDisplay:10.37,2013-03-22 02:45:00,
2013-03-21 22:50:00,30.0,15.4,29.68,North,353,3.5,3.5,54,0.00,OVC,,0.00,WeatherDisplay:10.37,2013-03-22 02:50:00,
2013-03-21 22:55:00,30.0,15.8,29.68,WNW,282,5.8,0.0,55,0.00,OVC,,0.00,WeatherDisplay:10.37,2013-03-22 02:55:00,
2013-03-21 23:00:00,30.1,15.9,29.68,NNE,18,0.0,0.0,55,0.00,OVC,,0.00,WeatherDisplay:10.37,2013-03-22 03:00:00,
2013-03-21 23:05:00,29.9,15.7,29.68,North,4,1.2,1.2,55,0.00,OVC,,0.00,WeatherDisplay:10.37,2013-03-22 03:05:00,
2013-03-21 23:10:00,29.7,14.7,29.68,NNW,337,8.1,8.1,53,0.00,OVC,,0.00,WeatherDisplay:10.37,2013-03-22 03:10:00,
2013-03-21 23:15:00,29.9,15.3,29.68,SE,140,4.6,4.6,54,0.00,OVC,,0.00,WeatherDisplay:10.37,2013-03-22 03:15:00,
2013-03-21 23:20:00,29.7,15.1,29.69,NNE,23,4.6,4.6,54,0.00,OVC,,0.00,WeatherDisplay:10.37,2013-03-22 03:20:00,
2013-03-21 23:25:00,29.7,15.5,29.69,North,1,2.3,0.0,55,0.00,OVC,,0.00,WeatherDisplay:10.37,2013-03-22 03:25:00,
2013-03-21 23:30:00,29.6,15.0,29.69,NW,320,4.6,4.6,54,0.00,OVC,,0.00,WeatherDisplay:10.37,2013-03-22 03:30:00,
2013-03-21 23:35:00,29.5,15.8,29.69,NE,45,1.2,1.2,56,0.00,OVC,,0.00,WeatherDisplay:10.37,2013-03-22 03:35:00,
2013-03-21 23:40:00,29.6,15.8,29.69,NE,45,0.0,0.0,56,0.00,OVC,,0.00,WeatherDisplay:10.37,2013-03-22 03:40:00,
2013-03-21 23:45:00,29.1,15.4,29.69,North,11,3.5,0.0,56,0.00,OVC,,0.00,WeatherDisplay:10.37,2013-03-22 03:45:00,
2013-03-21 23:50:00,29.1,15.4,29.69,North,11,0.0,0.0,56,0.00,OVC,,0.00,WeatherDisplay:10.37,2013-03-22 03:50:00,
2013-03-21 23:55:00,29.1,15.4,29.69,NNW,329,0.0,0.0,56,0.00,OVC,,0.00,WeatherDisplay:10.37,2013-03-22 03:55:00,